Terminal Aerodrome Forecast
Issued by NWS

Current Version | Previous Version | Text Only | Print | Product List | Glossary Off
Versions: 1 2 3 4 5 6 7 8 9 10 11 12 13 14 15 16 17 18 19 20

000
FTUS41 KRLX 222300
TAFCKB
TAF
KCKB 222329Z 2300/2324 32004KT P6SM BKN035
     FM230500 00000KT P6SM BKN025
     FM231300 00000KT P6SM SCT080
     FM232300 00000KT P6SM BKN090=

USA.gov is the U.S. government's official web portal to all federal, state and local government web resources and services.